Tiempo atmosférico en la estación meteorológica de Tornavacas, Cáceres (991 m.)



Fecha
DESCASC
Temp. máxima en grados centígrados (hora)
DESCASC
Temp. mínima en grados centígrados (hora)
DESCASC
Temp. media en grados centígrados
DESCASC
Racha de viento máxima en m/sg (hora)
DESCASC
Velocidad máxima media en intervalos de 10 minutos(hora)
DESCASC
Precipitaciones diarias en mm
DESCASC
Precipitaciones de 00:00 a 06:00 en mm
DESCASC
Precipitaciones de 06:00 a 12:00 en mm
DESCASC
Precipitaciones de 12:00 a 18:00 en mm
DESCASC
Precipitaciones de 18:00 a 24:00 en mm
DESCASC
04-03-2021 14.1 (15:10) 7.3 (03:00) 10.7 9.17 (00:20) 6.39 (04:30) 0 0 0 0 0
03-03-2021 15.3 (14:40) 5.6 (03:00) 10.5 11.67 (07:20) 8.61 (07:20) 0 0 0 0 0
02-03-2021 12.7 (17:50) 6.2 (23:20) 9.4 8.06 (13:20) 5.28 (15:00) 0 0 0 0 0
01-03-2021 12.2 (15:00) 6 (07:50) 9.1 8.06 (02:40) 5.28 (13:40) 0 0 0 0 0
28-02-2021 14.7 (15:50) 6.5 (00:00) 10.6 11.39 (01:00) 8.89 (01:00) 0 0 0 0 0
27-02-2021 17.8 (14:30) 8.5 (00:00) 13.1 11.11 (08:50) 8.06 (08:50) 0 0 0 0 0
26-02-2021 15.1 (14:20) 8.7 (00:00) 11.9 10.83 (08:20) 6.67 (08:20) 0 0 0 0 0
25-02-2021 12.3 (13:50) 7.2 (00:00) 9.8 8.06 (14:30) 5 (14:20) 0 0 0 0 0
24-02-2021 15.3 (15:40) 5.8 (00:00) 10.6 12.78 (13:10) 7.78 (13:10) 0 0 0 0 0
23-02-2021 13 (15:00) 1.3 (00:00) 7.1 8.33 (13:10) 5.83 (03:00) 0 0 0 0 0
22-02-2021 11.2 (16:20) 1.2 (00:00) 6.2 17.22 (00:10) 8.61 (00:10) 0 0 0 0 0
21-02-2021 12.8 (02:30) 1.7 (00:00) 7.3 22.78 (03:30) 8.89 (01:40) 39.4 0 17.8 17.8 3.8
20-02-2021 12.1 (23:00) 8.5 (00:00) 10.3 21.94 (12:40) 11.67 (08:50) 0 0 0 0 0
19-02-2021 14.5 (14:10) 6.5 (00:00) 10.5 17.5 (13:50) 10.83 (14:30) 0 0 0 0 0
18-02-2021 11.5 (15:20) 5.4 (00:00) 8.5 12.5 (14:30) 8.61 (16:00) 0 0 0 0 0
17-02-2021 13.9 (15:10) 6.8 (00:00) 10.3 9.44 (11:20) 6.11 (16:10) 0 0 0 0 0
16-02-2021 12.2 (15:30) 7.2 (00:00) 9.7 11.11 (15:20) 8.33 (16:00) 0 0 0 0 0
15-02-2021 16.1 (15:50) 7.3 (00:00) 11.7 9.17 (17:40) 6.11 (18:00) 0 0 0 0 0
14-02-2021 15.2 (16:40) 6.3 (00:00) 10.8 6.11 (14:30) 4.17 (17:20) 0 0 0 0 0
13-02-2021 14.4 (15:50) 4.5 (00:00) 9.4 12.22 (00:10) 8.89 (00:10) 0 0 0 0 0
12-02-2021 12.8 (16:40) 6.2 (00:00) 9.5 13.61 (01:20) 8.33 (22:20) 18.8 17.4 1.4 0 0
11-02-2021 9.7 (17:40) 6.7 (00:00) 8.2 10.83 (17:20) 7.22 (17:20) 8.2 0.4 3 4.2 0.6
10-02-2021 12.1 (16:20) 4.4 (00:00) 8.3 20 (04:20) 12.5 (02:00) 11.8 11.4 0.4 0 0
09-02-2021 6.5 (13:00) 3.6 (00:00) 5 16.67 (10:10) 10.28 (13:00) 50.6 6.8 25.2 14.6 4
08-02-2021 7.1 (14:40) 3.4 (00:00) 5.3 14.72 (19:20) 6.67 (15:40) 31.6 25 4.4 1.8 0.4
07-02-2021 9.3 (13:50) 2.4 (00:00) 5.9 10 (02:50) 6.94 (02:10) 6.8 0 0 1 5.8
06-02-2021 7.9 (14:30) 4.6 (00:00) 6.3 9.44 (19:20) 5.83 (23:10) 15.4 6.8 1.4 4.8 2.4
05-02-2021 9.5 (12:50) 6.2 (00:00) 7.8 15.56 (03:50) 6.11 (04:40) -- -- -- 0.4 7.4
04-02-2021 7.2 (23:50) 4.7 (00:00) 5.9 12.78 (20:20) 8.33 (20:10) -- 1.4 0 0 --

Gráficas

Temp. máximas Temp. mínimas Temp. medias Precipitaciones Rachas de viento máximas Velocidades máximas media en intervalos de 10 minutos

Datos horarios

Fecha y hora oficial Temperatura (ºC) Velocidad del viento (km/h) Dirección del viento Racha (km/h) Dirección de racha Precipitación (mm) Presión (hPa) Tendencia (hPa) Humedad (%)
2021-03-05 23:00:00 9 15 Este 25 Nordeste 0 -- -- 65
2021-03-05 22:00:00 9.3 14 Este 22 Este 0 -- -- 64
2021-03-05 21:00:00 8.5 8 Este 11 Este 0 -- -- 72
2021-03-05 20:00:00 9.5 4 Este 21 Sudoeste 0 -- -- 70
2021-03-05 19:00:00 12.4 8 Sudoeste 22 Sudoeste 0 -- -- 57
2021-03-05 18:00:00 14.4 8 Este 24 Nordeste 0 -- -- 39
2021-03-05 17:00:00 15.1 9 Nordeste 25 Nordeste 0 -- -- 36
2021-03-05 16:00:00 15.9 12 Oeste 28 Oeste 0 -- -- 40
2021-03-05 15:00:00 15.5 6 Nordeste 26 Nordeste 0 -- -- 34
2021-03-05 14:00:00 14.5 9 Este 23 Nordeste 0 -- -- 42
2021-03-05 13:00:00 12.8 15 Sudoeste 24 Sudoeste 0 -- -- 53
2021-03-05 12:00:00 11.9 20 Sudoeste 27 Nordeste 0 -- -- 56
2021-03-05 11:00:00 10.5 14 Este 26 Este 0 -- -- 58
2021-03-05 10:00:00 9.1 20 Este 33 Este 0 -- -- 64
2021-03-05 09:00:00 9.2 17 Este 27 Este 0 -- -- 60
2021-03-05 08:00:00 9.2 16 Este 31 Este 0 -- -- 60
2021-03-05 07:00:00 9.2 17 Este 27 Este 0 -- -- 61
2021-03-05 06:00:00 9.8 13 Este 18 Este 0 -- -- 58
2021-03-05 05:00:00 8.3 4 Sudeste 10 Sudeste 0 -- -- 65
2021-03-05 04:00:00 9.1 2 Sur 12 Este 0 -- -- 59
2021-03-05 03:00:00 10.3 2 Este 19 Nordeste 0 -- -- 50
2021-03-05 02:00:00 10.4 8 Este 24 Este 0 -- -- 48
2021-03-05 01:00:00 9.9 11 Este 20 Este 0 -- -- 56
2021-03-05 00:00:00 9.8 11 Este 19 Este 0 -- -- 58
2021-03-04 23:00:00 9.3 5 Este 9 Sudeste 0 -- -- 60
2021-03-04 22:00:00 10.9 9 Este 17 Este 0 -- -- 52
2021-03-04 21:00:00 10.1 0 Calma 21 Este 0 -- -- 57
2021-03-04 20:00:00 11.5 13 Este 20 Este 0 -- -- 49
2021-03-04 19:00:00 12 6 Este 12 Nordeste 0 -- -- 53
2021-03-04 18:00:00 13.1 0 Calma 15 Este 0 -- -- 42
2021-03-04 17:00:00 13.8 5 Oeste 16 Sudoeste 0 -- -- 45
2021-03-04 16:00:00 13.7 13 Sudoeste 21 Oeste 0 -- -- 54
2021-03-04 15:00:00 14 14 Oeste 22 Sudoeste 0 -- -- 53
2021-03-04 14:00:00 13.3 9 Sudoeste 24 Sudoeste 0 -- -- 51
2021-03-04 13:00:00 13.4 16 Sudoeste 26 Sudoeste 0 -- -- 51
2021-03-04 12:00:00 13.1 10 Sudoeste 19 Sudoeste 0 -- -- 53
2021-03-04 11:00:00 11.7 5 Sudoeste 10 Oeste 0 -- -- 56
2021-03-04 10:00:00 9.2 3 Sudeste 11 Sudeste 0 -- -- 62
2021-03-04 09:00:00 8 3 Este 15 Norte 0 -- -- 63
2021-03-04 08:00:00 7.4 8 Nordeste 17 Nordeste 0 -- -- 63
2021-03-04 07:00:00 8 4 Sudeste 23 Este 0 -- -- 61
2021-03-04 06:00:00 9.2 15 Este 24 Nordeste 0 -- -- 58
2021-03-04 05:00:00 8.3 16 Nordeste 32 Nordeste 0 -- -- 63
2021-03-04 04:00:00 7.8 8 Este 18 Nordeste 0 -- -- 67
2021-03-04 03:00:00 7.3 5 Este 16 Nordeste 0 -- -- 72
2021-03-04 02:00:00 7.9 9 Sudeste 24 Este 0 -- -- 70
2021-03-04 01:00:00 9.3 19 Nordeste 33 Nordeste 0 -- -- 66
2021-03-04 00:00:00 8.9 10 Nordeste 17 Nordeste 0 -- -- 70
2021-03-03 23:00:00 8.8 13 Nordeste 18 Nordeste 0 -- -- 70
2021-03-03 22:00:00 8 9 Sudeste 12 Este 0 -- -- 76
2021-03-03 21:00:00 8.8 7 Sudeste 13 Sudeste 0 -- -- 73
2021-03-03 20:00:00 9.5 10 Sudeste 12 Sudeste 0 -- -- 71
2021-03-03 19:00:00 12.6 3 Sur 20 Sudoeste 0 -- -- 59
2021-03-03 18:00:00 14.3 13 Sudoeste 24 Sudoeste 0 -- -- 54
2021-03-03 17:00:00 15.1 15 Sudoeste 23 Sudoeste 0 -- -- 51
2021-03-03 16:00:00 13.9 13 Oeste 29 Sudoeste 0 -- -- 52
2021-03-03 15:00:00 14.3 16 Sudoeste 24 Oeste 0 -- -- 50
2021-03-03 14:00:00 15 16 Sudoeste 25 Sudoeste 0 -- -- 51
2021-03-03 13:00:00 14.2 11 Sudoeste 18 Sudoeste 0 -- -- 54
2021-03-03 12:00:00 13.7 7 Sudoeste 12 Norte 0 -- -- 50
2021-03-03 11:00:00 11.3 10 Nordeste 37 Nordeste 0 -- -- 61
2021-03-03 10:00:00 7.7 23 Nordeste 38 Nordeste 0 -- -- 73
2021-03-03 09:00:00 6.3 28 Nordeste 36 Nordeste 0 -- -- 76
2021-03-03 08:00:00 6.6 27 Nordeste 42 Nordeste 0 -- -- 74
2021-03-03 07:00:00 6.2 27 Nordeste 35 Nordeste 0 -- -- 77
2021-03-03 06:00:00 7.4 21 Este 33 Este 0 -- -- 73
2021-03-03 05:00:00 6.7 14 Nordeste 25 Nordeste 0 -- -- 77
2021-03-03 04:00:00 6.8 11 Este 27 Nordeste 0 -- -- 77
2021-03-03 03:00:00 5.6 15 Nordeste 21 Nordeste 0 -- -- 81
2021-03-03 02:00:00 6.7 11 Nordeste 24 Nordeste 0 -- -- 77
2021-03-03 01:00:00 6.6 15 Nordeste 22 Nordeste 0 -- -- 77
2021-03-03 00:00:00 7 9 Este 13 Este 0 -- -- 80
2021-03-02 23:00:00 6.5 9 Sudeste 12 Sudeste 0 -- -- 82
2021-03-02 22:00:00 6.6 5 Este 13 Sudeste 0 -- -- 83
2021-03-02 21:00:00 7 8 Este 13 Sudeste 0 -- -- 81
2021-03-02 20:00:00 7.9 8 Este 10 Este 0 -- -- 79
2021-03-02 19:00:00 10.7 3 Sudoeste 9 Oeste 0 -- -- 69
2021-03-02 18:00:00 12.6 5 Sudoeste 11 Sudoeste 0 -- -- 61
2021-03-02 17:00:00 11.6 6 Sudoeste 17 Oeste 0 -- -- 67
2021-03-02 16:00:00 10.6 10 Sudoeste 26 Oeste 0 -- -- 70
2021-03-02 15:00:00 10.8 19 Oeste 29 Oeste 0 -- -- 68
2021-03-02 14:00:00 11.9 17 Oeste 29 Oeste 0 -- -- 64
2021-03-02 13:00:00 11.2 7 Sudoeste 12 Sudoeste 0 -- -- 69
2021-03-02 12:00:00 10.3 4 Oeste 10 Sudoeste 0 -- -- 72
2021-03-02 11:00:00 9.3 4 Oeste 9 Oeste 0 -- -- 80
2021-03-02 10:00:00 7.8 4 Norte 8 Sur 0 -- -- 86
2021-03-02 09:00:00 7.2 4 Sudoeste 9 Sudoeste 0 -- -- 87
2021-03-02 08:00:00 7 2 Sudeste 6 Este 0 -- -- 87
2021-03-02 07:00:00 6.8 0 Calma 8 Sudeste 0 -- -- 87
2021-03-02 06:00:00 6.9 0 Calma 6 Este 0 -- -- 89
2021-03-02 05:00:00 6.9 0 Calma 6 Sudeste 0 -- -- 88
2021-03-02 04:00:00 7.1 0 Calma 9 Noroeste 0 -- -- 87
2021-03-02 03:00:00 7.4 4 Sudeste 8 Sudeste 0 -- -- 86
2021-03-02 02:00:00 7.3 0 Calma 7 Este 0 -- -- 85
2021-03-02 01:00:00 8 2 Sudoeste 12 Sur 0 -- -- 79
2021-03-02 00:00:00 7 4 Este 9 Este 0 -- -- 82
2021-03-01 23:00:00 8 3 Nordeste 9 Sudeste 0 -- -- 75
2021-03-01 22:00:00 7.7 5 Nordeste 8 Nordeste 0 -- -- 76
2021-03-01 21:00:00 7.8 7 Sudeste 12 Sudeste 0 -- -- 75
2021-03-01 20:00:00 7.8 5 Este 12 Sudoeste 0 -- -- 75
2021-03-01 19:00:00 9.2 5 Sur 13 Sudoeste 0 -- -- 70
2021-03-01 18:00:00 9.4 4 Oeste 14 Sudoeste 0 -- -- 73
2021-03-01 17:00:00 9.4 12 Sudoeste 22 Sudoeste 0 -- -- 73
2021-03-01 16:00:00 10.1 13 Sudoeste 21 Sudoeste 0 -- -- 68
2021-03-01 15:00:00 12.2 6 Sudoeste 22 Sudoeste 0 -- -- 61
2021-03-01 14:00:00 11.2 12 Sudoeste 28 Sudoeste 0 -- -- 66
2021-03-01 13:00:00 9.5 14 Sudoeste 19 Sudoeste 0 -- -- 71
2021-03-01 12:00:00 8.4 4 Sudoeste 10 Sur 0 -- -- 73
2021-03-01 11:00:00 7.7 5 Sudoeste 8 Sudoeste 0 -- -- 76
2021-03-01 10:00:00 7.3 0 Calma 10 Sudeste 0 -- -- 80
2021-03-01 09:00:00 6.5 0 Calma 9 Sudeste 0 -- -- 81
2021-03-01 08:00:00 6 3 Este 15 Este 0 -- -- 83
2021-03-01 07:00:00 6.8 4 Nordeste 7 Nordeste 0 -- -- 80
2021-03-01 06:00:00 7.6 4 Sudeste 10 Sudoeste 0 -- -- 76
2021-03-01 05:00:00 7.6 4 Nordeste 8 Este 0 -- -- 78
2021-03-01 04:00:00 7.4 4 Nordeste 14 Sudeste 0 -- -- 80
2021-03-01 03:00:00 8.6 9 Sur 29 Sudoeste 0 -- -- 73
2021-03-01 02:00:00 7.8 5 Norte 10 Norte 0 -- -- 75
2021-03-01 01:00:00 8.3 4 Sur 12 Nordeste 0 -- -- 70
2021-03-01 00:00:00 7.6 5 Sudeste 15 Sudeste 0 -- -- 71
2021-02-28 23:00:00 7 6 Este 15 Sudeste 0 -- -- 74
2021-02-28 22:00:00 6.9 6 Este 11 Este 0 -- -- 74
2021-02-28 21:00:00 8.3 3 Sur 15 Sudeste 0 -- -- 68
2021-02-28 20:00:00 9.2 8 Sur 17 Oeste 0 -- -- 64
2021-02-28 19:00:00 11.1 14 Oeste 23 Oeste 0 -- -- 61
2021-02-28 18:00:00 13 16 Oeste 30 Oeste 0 -- -- 50
2021-02-28 17:00:00 13.7 20 Oeste 33 Oeste 0 -- -- 51
2021-02-28 16:00:00 14.2 23 Oeste 32 Sudoeste 0 -- -- 47
2021-02-28 15:00:00 14 21 Oeste 30 Sudoeste 0 -- -- 47
2021-02-28 14:00:00 12.9 17 Sudoeste 25 Sudoeste 0 -- -- 52
2021-02-28 13:00:00 12.4 6 Sudoeste 12 Sudoeste 0 -- -- 59
2021-02-28 12:00:00 10.9 9 Sudoeste 18 Sudoeste 0 -- -- 60
2021-02-28 11:00:00 11.8 2 Sudoeste 7 Sudeste 0 -- -- 50
2021-02-28 10:00:00 8.4 3 Sudeste 11 Sudeste 0 -- -- 59
2021-02-28 09:00:00 6.5 9 Este 23 Nordeste 0 -- -- 63
2021-02-28 08:00:00 7.1 16 Nordeste 31 Nordeste 0 -- -- 55
2021-02-28 07:00:00 7.6 15 Nordeste 23 Nordeste 0 -- -- 54
2021-02-28 06:00:00 6.9 10 Sudeste 17 Este 0 -- -- 58
2021-02-28 05:00:00 7.1 10 Este 15 Sudeste 0 -- -- 58
2021-02-28 04:00:00 7.4 8 Este 14 Este 0 -- -- 54
2021-02-28 03:00:00 8.6 9 Sudeste 28 Nordeste 0 -- -- 50
2021-02-28 02:00:00 9.5 21 Nordeste 40 Nordeste 0 -- -- 53
2021-02-28 01:00:00 9.8 32 Nordeste 41 Nordeste 0 -- -- 51
2021-02-28 00:00:00 12 19 Este 35 Este 0 -- -- 45
2021-02-27 23:00:00 11.7 26 Este 37 Este 0 -- -- 49
2021-02-27 22:00:00 12 25 Este 37 Este 0 -- -- 50
2021-02-27 21:00:00 12 20 Este 33 Este 0 -- -- 52
2021-02-27 20:00:00 12.6 12 Este 29 Este 0 -- -- 49
2021-02-27 19:00:00 14.2 11 Este 28 Nordeste 0 -- -- 47
2021-02-27 18:00:00 15.4 15 Este 31 Nordeste 0 -- -- 47
2021-02-27 17:00:00 16.2 15 Nordeste 33 Nordeste 0 -- -- 49
2021-02-27 16:00:00 16.6 16 Nordeste 31 Este 0 -- -- 51
2021-02-27 15:00:00 17.1 22 Sudoeste 28 Sudoeste 0 -- -- 40
2021-02-27 14:00:00 17.5 10 Nordeste 24 Norte 0 -- -- 28
2021-02-27 13:00:00 16.1 15 Nordeste 28 Nordeste 0 -- -- 32
2021-02-27 12:00:00 14.4 19 Nordeste 35 Este 0 -- -- 38
2021-02-27 11:00:00 12.3 21 Nordeste 31 Este 0 -- -- 45
2021-02-27 10:00:00 11.5 19 Este 37 Este 0 -- -- 43
2021-02-27 09:00:00 9.6 26 Este 40 Este 0 -- -- 50
2021-02-27 08:00:00 9.8 27 Este 38 Este 0 -- -- 48
2021-02-27 07:00:00 8.5 19 Nordeste 32 Nordeste 0 -- -- 52
2021-02-27 06:00:00 10 21 Nordeste 31 Este 0 -- -- 50
2021-02-27 05:00:00 9.8 23 Este 35 Nordeste 0 -- -- 57
2021-02-27 04:00:00 9.2 17 Nordeste 34 Nordeste 0 -- -- 65
2021-02-27 03:00:00 8.8 21 Nordeste 36 Nordeste 0 -- -- 61
2021-02-27 02:00:00 9.5 21 Nordeste 32 Nordeste 0 -- -- 63
2021-02-27 01:00:00 8.9 21 Nordeste 31 Nordeste 0 -- -- 71
2021-02-27 00:00:00 10.4 18 Nordeste 27 Nordeste 0 -- -- 65
2021-02-26 23:00:00 9.8 17 Nordeste 25 Este 0 -- -- 68
2021-02-26 22:00:00 11.7 19 Este 29 Este 0 -- -- 60
2021-02-26 21:00:00 12 14 Este 24 Este 0 -- -- 59
2021-02-26 20:00:00 11.3 14 Nordeste 22 Nordeste 0 -- -- 63
2021-02-26 19:00:00 11.1 0 Calma 10 Oeste 0 -- -- 75
2021-02-26 18:00:00 12.6 6 Sudoeste 13 Sudoeste 0 -- -- 70
2021-02-26 17:00:00 13.4 8 Sudoeste 17 Sudoeste 0 -- -- 63
2021-02-26 16:00:00 14.5 10 Oeste 18 Sudoeste 0 -- -- 58
2021-02-26 15:00:00 14.6 12 Sudoeste 17 Sudoeste 0 -- -- 55
2021-02-26 14:00:00 14.1 4 Noroeste 16 Oeste 0 -- -- 56
2021-02-26 13:00:00 12.3 5 Sudoeste 8 Sudoeste 0 -- -- 63
2021-02-26 12:00:00 11.1 5 Oeste 21 Nordeste 0 -- -- 69
2021-02-26 11:00:00 10.8 19 Nordeste 32 Nordeste 0 -- -- 64
2021-02-26 10:00:00 9.5 23 Nordeste 31 Nordeste 0 -- -- 69
2021-02-26 09:00:00 9.4 15 Este 39 Este 0 -- -- 67
2021-02-26 08:00:00 8.9 23 Nordeste 33 Nordeste 0 -- -- 70
2021-02-26 07:00:00 8.8 10 Nordeste 27 Nordeste 0 -- -- 71
2021-02-26 06:00:00 9.2 22 Este 33 Este 0 -- -- 69
2021-02-26 05:00:00 9.4 23 Este 34 Este 0 -- -- 68
2021-02-26 04:00:00 9.5 20 Este 30 Este 0 -- -- 68
2021-02-26 03:00:00 9.8 21 Este 32 Este 0 -- -- 68
2021-02-26 02:00:00 10.2 16 Este 32 Este 0 -- -- 67
2021-02-26 01:00:00 9.9 24 Este 36 Este 0 -- -- 69
2021-02-26 00:00:00 10.3 11 Este 21 Nordeste 0 -- -- 67
2021-02-25 23:00:00 8.9 6 Este 17 Este 0 -- -- 71
2021-02-25 22:00:00 8.9 3 Sudeste 11 Sudeste 0 -- -- 76
2021-02-25 21:00:00 9.8 6 Este 17 Nordeste 0 -- -- 72
2021-02-25 20:00:00 8.8 2 Sudeste 4 Sudeste 0 -- -- 81
2021-02-25 19:00:00 10.1 2 Sudeste 4 Sudoeste 0 -- -- 75
2021-02-25 18:00:00 10.5 0 Calma 12 Oeste 0 -- -- 72
2021-02-25 17:00:00 11.4 9 Sudoeste 18 Sudoeste 0 -- -- 69
2021-02-25 16:00:00 11.2 11 Sudoeste 24 Sudoeste 0 -- -- 66
2021-02-25 15:00:00 11.8 14 Sudoeste 29 Oeste 0 -- -- 65
2021-02-25 14:00:00 12 16 Sudoeste 24 Oeste 0 -- -- 63
2021-02-25 13:00:00 11.2 15 Sudoeste 22 Sudoeste 0 -- -- 65
2021-02-25 12:00:00 9.6 3 Oeste 19 Sudoeste 0 -- -- 71
2021-02-25 11:00:00 9.2 11 Sudoeste 18 Sudoeste 0 -- -- 71
2021-02-25 10:00:00 8.2 5 Sudoeste 11 Sudoeste 0 -- -- 74
2021-02-25 09:00:00 7.6 4 Sudoeste 13 Oeste 0 -- -- 76
2021-02-25 08:00:00 7.5 3 Este 13 Sur 0 -- -- 75
2021-02-25 07:00:00 8.3 6 Sudoeste 16 Sur 0 -- -- 73
2021-02-25 06:00:00 8 4 Sudoeste 12 Sudeste 0 -- -- 76
2021-02-25 05:00:00 8.5 4 Este 14 Sudeste 0 -- -- 74
2021-02-25 04:00:00 8.7 3 Este 11 Sur 0 -- -- 73
2021-02-25 03:00:00 8.8 2 Noroeste 14 Sudeste 0 -- -- 71
2021-02-25 02:00:00 8.9 3 Nordeste 14 Sudoeste 0 -- -- 71
2021-02-25 01:00:00 10 5 Sudeste 15 Sudeste 0 -- -- 66
2021-02-25 00:00:00 10.7 0 Calma 21 Este 0 -- -- 63
2021-02-24 23:00:00 11.2 7 Sudeste 35 Sudoeste 0 -- -- 60
2021-02-24 22:00:00 11 12 Oeste 30 Oeste 0 -- -- 64
2021-02-24 21:00:00 10.7 6 Sur 15 Oeste 0 -- -- 64
2021-02-24 20:00:00 11.4 8 Sur 24 Oeste 0 -- -- 60
2021-02-24 19:00:00 12.3 14 Oeste 36 Oeste 0 -- -- 56
2021-02-24 18:00:00 13.9 19 Oeste 35 Oeste 0 -- -- 50
2021-02-24 17:00:00 14.7 18 Oeste 44 Oeste 0 -- -- 46
2021-02-24 16:00:00 15.2 21 Oeste 44 Oeste 0 -- -- 42
2021-02-24 15:00:00 14.6 25 Oeste 46 Oeste 0 -- -- 44
2021-02-24 14:00:00 14 24 Oeste 46 Oeste 0 -- -- 49
2021-02-24 13:00:00 13.6 25 Oeste 38 Oeste 0 -- -- 50
2021-02-24 12:00:00 12.5 20 Sudoeste 31 Sudoeste 0 -- -- 52
2021-02-24 11:00:00 10.8 11 Sudoeste 20 Sur 0 -- -- 59
2021-02-24 10:00:00 8.1 3 Sudoeste 13 Este 0 -- -- 67
2021-02-24 09:00:00 7.1 4 Sudeste 15 Sudeste 0 -- -- 68
2021-02-24 08:00:00 6.2 3 Sur 9 Sur 0 -- -- 71
2021-02-24 07:00:00 7.1 4 Sur 15 Este 0 -- -- 67
2021-02-24 06:00:00 7.6 9 Sudoeste 22 Oeste 0 -- -- 64
2021-02-24 05:00:00 8.6 11 Sur 25 Sudoeste 0 -- -- 58
2021-02-24 04:00:00 8.2 10 Sudoeste 33 Oeste 0 -- -- 60
2021-02-24 03:00:00 8 6 Sur 19 Oeste 0 -- -- 61
2021-02-24 02:00:00 7.1 15 Sudoeste 22 Oeste 0 -- -- 64
2021-02-24 01:00:00 8.3 9 Sur 18 Sudeste 0 -- -- 55
2021-02-24 00:00:00 7.8 10 Sudeste 20 Este 0 -- -- 56
2021-02-23 23:00:00 8.8 12 Sur 24 Sur 0 -- -- 58
2021-02-23 22:00:00 8.7 12 Sur 22 Sudoeste 0 -- -- 61
2021-02-23 21:00:00 9.1 13 Sur 21 Sur 0 -- -- 54
2021-02-23 20:00:00 8.9 9 Sur 17 Sur 0 -- -- 54
2021-02-23 19:00:00 10.6 3 Sudeste 21 Oeste 0 -- -- 51
2021-02-23 18:00:00 12.8 13 Oeste 24 Oeste 0 -- -- 49
2021-02-23 17:00:00 13 13 Oeste 26 Oeste 0 -- -- 50
2021-02-23 16:00:00 12.4 18 Noroeste 30 Oeste 0 -- -- 52
2021-02-23 15:00:00 13 12 Sudoeste 26 Sudoeste 0 -- -- 50
2021-02-23 14:00:00 11.4 14 Oeste 30 Oeste 0 -- -- 50
2021-02-23 13:00:00 11.5 15 Sudoeste 26 Sudoeste 0 -- -- 46
2021-02-23 12:00:00 10.3 6 Sudoeste 12 Sudoeste 0 -- -- 38
2021-02-23 11:00:00 8.7 4 Sudoeste 13 Sudeste 0 -- -- 35
2021-02-23 10:00:00 5 6 Sudeste 13 Sudeste 0 -- -- 45
2021-02-23 09:00:00 2.2 9 Este 13 Este 0 -- -- 59
2021-02-23 08:00:00 1.4 8 Este 14 Nordeste 0 -- -- 70
2021-02-23 07:00:00 2.2 7 Este 14 Nordeste 0 -- -- 68
2021-02-23 06:00:00 2.7 6 Este 12 Sudeste 0 -- -- 63
2021-02-23 05:00:00 1.8 6 Sudeste 13 Este 0 -- -- 66
2021-02-23 04:00:00 2.1 8 Este 21 Nordeste 0 -- -- 65
2021-02-23 03:00:00 2.6 21 Nordeste 27 Nordeste 0 -- -- 59
2021-02-23 02:00:00 2.1 6 Este 13 Este 0 -- -- 60
2021-02-23 01:00:00 2.7 10 Este 27 Nordeste 0 -- -- 56
2021-02-23 00:00:00 2.9 7 Este 23 Nordeste 0 -- -- 56
2021-02-22 23:00:00 3.1 10 Nordeste 25 Nordeste 0 -- -- 59
2021-02-22 22:00:00 3.4 9 Este 19 Nordeste 0 -- -- 66
2021-02-22 21:00:00 3.4 9 Este 13 Este 0 -- -- 75
2021-02-22 20:00:00 4.6 7 Nordeste 12 Norte 0 -- -- 71
2021-02-22 19:00:00 8.4 8 Oeste 20 Nordeste 0 -- -- 55
2021-02-22 18:00:00 9.3 13 Este 23 Este 0 -- -- 40
2021-02-22 17:00:00 9.8 13 Nordeste 26 Este 0 -- -- 36
2021-02-22 16:00:00 11.1 10 Sudoeste 21 Sudoeste 0 -- -- 34
2021-02-22 15:00:00 10.2 7 Nordeste 16 Nordeste 0 -- -- 37
2021-02-22 14:00:00 8.7 12 Nordeste 18 Nordeste 0 -- -- 41
2021-02-22 13:00:00 6.9 13 Este 31 Nordeste 0 -- -- 49
2021-02-22 12:00:00 5.2 20 Nordeste 36 Nordeste 0 -- -- 57
2021-02-22 11:00:00 3.9 23 Nordeste 40 Nordeste 0 -- -- 55
2021-02-22 10:00:00 2.5 22 Nordeste 36 Nordeste 0 -- -- 67
2021-02-22 09:00:00 1.7 16 Nordeste 33 Nordeste 0 -- -- 69
2021-02-22 08:00:00 1.2 19 Nordeste 31 Nordeste 0 -- -- 76
2021-02-22 07:00:00 1.8 18 Este 41 Este 0 -- -- 76
2021-02-22 06:00:00 2.1 21 Este 37 Nordeste 0 -- -- 71
2021-02-22 05:00:00 2.6 22 Este 37 Este 0 -- -- 71
2021-02-22 04:00:00 3.2 26 Este 39 Este 0 -- -- 72
2021-02-22 03:00:00 4.2 25 Este 41 Este 0 -- -- 69
2021-02-22 02:00:00 4.2 18 Este 52 Este 0 -- -- 70
2021-02-22 01:00:00 4.4 23 Nordeste 62 Este 0 -- -- 72
2021-02-22 00:00:00 4.8 29 Este 48 Este 0 -- -- 72
2021-02-21 23:00:00 4.4 18 Este 45 Este 0.2 -- -- 77
2021-02-21 22:00:00 4.3 14 Este 31 Nordeste 0 -- -- 79
2021-02-21 21:00:00 3.3 6 Sudeste 26 Este 0.2 -- -- 86
2021-02-21 20:00:00 2.8 20 Nordeste 31 Este 0.6 -- -- 89
2021-02-21 19:00:00 2.3 18 Nordeste 31 Nordeste 2.8 -- -- 91
2021-02-21 18:00:00 2 15 Nordeste 31 Este 3.2 -- -- 92
2021-02-21 17:00:00 1.8 14 Este 30 Nordeste 2 -- -- 92
2021-02-21 16:00:00 2.7 10 Nordeste 25 Este 3 -- -- 90
2021-02-21 15:00:00 3.4 7 Sudeste 19 Sudeste 4 -- -- 91
2021-02-21 14:00:00 4.5 9 Sudoeste 23 Sudoeste 3.6 -- -- 98
2021-02-21 13:00:00 4.8 0 Calma 29 Sudoeste 2 -- -- 98
2021-02-21 12:00:00 4.3 19 Sudoeste 46 Sudoeste 2.8 -- -- 97
2021-02-21 11:00:00 6.4 17 Sudoeste 35 Sudoeste 2.8 -- -- 94
2021-02-21 10:00:00 7 22 Sudoeste 41 Sudoeste 4.4 -- -- 89
2021-02-21 09:00:00 7.4 21 Sudoeste 52 Oeste 3.4 -- -- 84
2021-02-21 08:00:00 7.5 23 Oeste 60 Oeste 4.4 -- -- 83
2021-02-21 07:00:00 9.1 22 Sudoeste 53 Sudoeste 0 -- -- 69
2021-02-21 06:00:00 10.7 23 Sudoeste 55 Oeste 0 -- -- 51
2021-02-21 05:00:00 11.5 21 Sudoeste 73 Oeste 0 -- -- 40
2021-02-21 04:00:00 12.5 17 Oeste 82 Oeste 0 -- -- 31
2021-02-21 03:00:00 12.8 26 Oeste 65 Oeste 0 -- -- 28
2021-02-21 02:00:00 12.6 28 Sudoeste 66 Oeste 0 -- -- 32
2021-02-21 01:00:00 12.3 28 Oeste 70 Sudoeste 0 -- -- 41
2021-02-21 00:00:00 12 29 Sudoeste 63 Sudoeste 0 -- -- 37
2021-02-20 23:00:00 12.1 21 Sudoeste 60 Sudoeste 0 -- -- 32
2021-02-20 22:00:00 11.8 23 Oeste 63 Sudoeste 0 -- -- 34
2021-02-20 21:00:00 11.3 32 Oeste 72 Oeste 0 -- -- 35
2021-02-20 20:00:00 11 25 Oeste 64 Sudoeste 0 -- -- 40
2021-02-20 19:00:00 11.1 30 Oeste 68 Oeste 0 -- -- 40
2021-02-20 18:00:00 11.1 23 Sudoeste 58 Sudoeste 0 -- -- 40
2021-02-20 17:00:00 11.2 33 Oeste 58 Sudoeste 0 -- -- 44
2021-02-20 16:00:00 11.1 29 Sudoeste 58 Sudoeste 0 -- -- 43
2021-02-20 15:00:00 11.2 34 Oeste 70 Oeste 0 -- -- 41
2021-02-20 14:00:00 11 33 Oeste 76 Oeste 0 -- -- 46
2021-02-20 13:00:00 11.9 30 Sudoeste 79 Oeste 0 -- -- 43
2021-02-20 12:00:00 10.6 36 Oeste 68 Oeste 0 -- -- 48
2021-02-20 11:00:00 10.5 39 Oeste 78 Oeste 0 -- -- 51
2021-02-20 10:00:00 9.8 31 Oeste 70 Oeste 0 -- -- 52
2021-02-20 09:00:00 9 40 Oeste 66 Oeste 0 -- -- 55
2021-02-20 08:00:00 9 38 Oeste 62 Oeste 0 -- -- 55
2021-02-20 07:00:00 8.7 23 Oeste 46 Oeste 0 -- -- 57
2021-02-20 06:00:00 8.6 21 Sudoeste 52 Oeste 0 -- -- 60
2021-02-20 05:00:00 8.5 29 Oeste 53 Sudoeste 0 -- -- 65
2021-02-20 04:00:00 8.6 19 Sudoeste 56 Oeste 0 -- -- 63
2021-02-20 03:00:00 9.8 35 Oeste 60 Oeste 0 -- -- 48
2021-02-20 02:00:00 10.1 31 Oeste 64 Oeste 0 -- -- 50
2021-02-20 01:00:00 10.1 31 Oeste 60 Sudoeste 0 -- -- 60
2021-02-20 00:00:00 10.1 17 Sudoeste 47 Sudoeste 0 -- -- 61
2021-02-19 23:00:00 9.6 25 Sudoeste 41 Sudoeste 0 -- -- 65
2021-02-19 22:00:00 9.3 24 Sur 37 Sur 0 -- -- 58
2021-02-19 21:00:00 10 22 Sudoeste 34 Sudoeste 0 -- -- 52
2021-02-19 20:00:00 9.6 14 Sudoeste 40 Sudoeste 0 -- -- 48
2021-02-19 19:00:00 10.6 24 Sudoeste 44 Sudoeste 0 -- -- 43
2021-02-19 18:00:00 11.7 23 Sudoeste 49 Oeste 0 -- -- 50
2021-02-19 17:00:00 12.9 28 Oeste 58 Oeste 0 -- -- 45
2021-02-19 16:00:00 13.4 31 Sudoeste 55 Sudoeste 0 -- -- 42
2021-02-19 15:00:00 14.2 31 Sudoeste 63 Oeste 0 -- -- 39
2021-02-19 14:00:00 14.2 34 Oeste 63 Oeste 0 -- -- 36
2021-02-19 13:00:00 13.5 37 Oeste 61 Oeste 0 -- -- 37
2021-02-19 12:00:00 12.5 28 Oeste 48 Oeste 0 -- -- 40
2021-02-19 11:00:00 11.1 22 Oeste 39 Oeste 0 -- -- 51
2021-02-19 10:00:00 9.3 20 Sudoeste 44 Oeste 0 -- -- 63
2021-02-19 09:00:00 7.7 21 Oeste 34 Oeste 0 -- -- 69
2021-02-19 08:00:00 7.1 14 Sudoeste 24 Sur 0 -- -- 79
2021-02-19 07:00:00 6.8 13 Sudoeste 21 Sudoeste 0 -- -- 82
2021-02-19 06:00:00 7.3 14 Sudoeste 22 Sudoeste 0 -- -- 80
2021-02-19 05:00:00 7 12 Sudoeste 25 Sudoeste 0 -- -- 78
2021-02-19 04:00:00 7.6 18 Sudoeste 28 Oeste 0 -- -- 75
2021-02-19 03:00:00 7.6 15 Sudoeste 30 Sudoeste 0 -- -- 76
2021-02-19 02:00:00 8.6 16 Sudoeste 30 Sudoeste 0 -- -- 71
2021-02-19 01:00:00 8.8 20 Sudoeste 29 Sudoeste 0 -- -- 70
2021-02-19 00:00:00 9.1 21 Sudoeste 33 Sudoeste 0 -- -- 70
2021-02-18 23:00:00 9.3 22 Sudoeste 41 Sudoeste 0 -- -- 69
2021-02-18 22:00:00 9.3 24 Sudoeste 36 Sudoeste 0 -- -- 69
2021-02-18 21:00:00 9.2 20 Sudoeste 30 Sudoeste 0 -- -- 73
2021-02-18 20:00:00 9.5 21 Sudoeste 32 Sudoeste 0 -- -- 73
2021-02-18 19:00:00 9.7 20 Sudoeste 36 Sudoeste 0 -- -- 70
2021-02-18 18:00:00 10.4 23 Sudoeste 43 Sudoeste 0 -- -- 66
2021-02-18 17:00:00 11.2 30 Sudoeste 44 Sudoeste 0 -- -- 64
2021-02-18 16:00:00 10.8 31 Sudoeste 43 Sudoeste 0 -- -- 62
2021-02-18 15:00:00 11.1 28 Sudoeste 45 Sudoeste 0 -- -- 60
2021-02-18 14:00:00 10.4 28 Sudoeste 42 Sudoeste 0 -- -- 62
2021-02-18 13:00:00 10.4 26 Sudoeste 41 Sudoeste 0 -- -- 67
2021-02-18 12:00:00 9.5 20 Sudoeste 31 Sudoeste 0 -- -- 71
2021-02-18 11:00:00 8.3 15 Sudoeste 22 Sudoeste 0 -- -- 78
2021-02-18 10:00:00 6.7 12 Sudoeste 19 Sudoeste 0 -- -- 87
2021-02-18 09:00:00 5.9 12 Sudoeste 18 Sudoeste 0 -- -- 91
2021-02-18 08:00:00 5.7 7 Sudoeste 11 Sudoeste 0 -- -- 91
2021-02-18 07:00:00 5.8 0 Calma 12 Sudoeste 0 -- -- 91
2021-02-18 06:00:00 6.6 8 Sudoeste 16 Sur 0 -- -- 91
2021-02-18 05:00:00 7.1 7 Sudoeste 15 Sudoeste 0 -- -- 89
2021-02-18 04:00:00 7.4 6 Sudoeste 18 Sur 0 -- -- 87
2021-02-18 03:00:00 7.8 6 Sudoeste 14 Sudoeste 0 -- -- 84
2021-02-18 02:00:00 7.6 6 Sudoeste 13 Sudoeste 0 -- -- 81
2021-02-18 01:00:00 8.1 6 Sudoeste 14 Sudoeste 0 -- -- 77
2021-02-18 00:00:00 8.5 8 Sudoeste 23 Sur 0 -- -- 75
2021-02-17 23:00:00 9.2 8 Sudoeste 19 Sudoeste 0 -- -- 71
2021-02-17 22:00:00 9 8 Sudoeste 19 Sur 0 -- -- 71
2021-02-17 21:00:00 8.9 4 Sudoeste 11 Sudoeste 0 -- -- 70
2021-02-17 20:00:00 9.6 4 Sudoeste 14 Sudoeste 0 -- -- 69
2021-02-17 19:00:00 11.4 11 Sudoeste 26 Sudoeste 0 -- -- 62
2021-02-17 18:00:00 12.8 21 Sudoeste 29 Sudoeste 0 -- -- 55
2021-02-17 17:00:00 13.7 19 Sudoeste 29 Sudoeste 0 -- -- 57
2021-02-17 16:00:00 13.7 21 Sudoeste 32 Sudoeste 0 -- -- 62
2021-02-17 15:00:00 13.8 21 Sudoeste 29 Sudoeste 0 -- -- 65
2021-02-17 14:00:00 13 20 Sudoeste 26 Sudoeste 0 -- -- 70
2021-02-17 13:00:00 12 19 Sudoeste 25 Sudoeste 0 -- -- 72
2021-02-17 12:00:00 10.9 18 Sudoeste 34 Sudoeste 0 -- -- 79
2021-02-17 11:00:00 9.9 12 Sudoeste 16 Sudoeste 0 -- -- 81
2021-02-17 10:00:00 8.4 4 Sudoeste 10 Sudoeste 0 -- -- 87
2021-02-17 09:00:00 7.3 0 Calma 6 Sur 0 -- -- 88
2021-02-17 08:00:00 7.4 0 Calma 8 Sudeste 0 -- -- 87
2021-02-17 07:00:00 6.9 0 Calma 13 Sur 0 -- -- 88
2021-02-17 06:00:00 7.5 5 Sudoeste 9 Sudoeste 0 -- -- 85
2021-02-17 05:00:00 8.2 5 Sur 11 Sudoeste 0 -- -- 83
2021-02-17 04:00:00 8.2 5 Sur 10 Sudoeste 0 -- -- 81
2021-02-17 03:00:00 8.1 4 Sur 10 Sur -- -- -- 81
2021-02-17 02:00:00 8.5 2 Sur 8 Sur 0 -- -- 80
2021-02-17 01:00:00 8.1 0 Calma 5 Norte 0 -- -- 82
2021-02-17 00:00:00 8.3 0 Calma 11 Sudeste 0 -- -- 81
2021-02-16 23:00:00 7.9 4 Este 8 Sudeste 0 -- -- 82
2021-02-16 22:00:00 8.1 3 Nordeste 7 Sudeste 0 -- -- 83
2021-02-16 21:00:00 8.4 4 Sudeste 9 Sudoeste 0 -- -- 80
2021-02-16 20:00:00 8.5 6 Sudoeste 18 Sudoeste 0 -- -- 79
2021-02-16 19:00:00 9.1 12 Sudoeste 25 Sudoeste 0 -- -- 76
2021-02-16 18:00:00 10.1 19 Sudoeste 40 Sudoeste 0 -- -- 72
2021-02-16 17:00:00 11.3 26 Sudoeste 40 Sudoeste 0 -- -- 65
2021-02-16 16:00:00 11.5 30 Sudoeste 40 Sudoeste 0 -- -- 61
2021-02-16 15:00:00 11.7 28 Sudoeste 37 Sudoeste 0 -- -- 67
2021-02-16 14:00:00 11.7 27 Sudoeste 37 Sudoeste 0 -- -- 65
2021-02-16 13:00:00 10.8 26 Sudoeste 38 Sudoeste 0 -- -- 66
2021-02-16 12:00:00 10.7 28 Sudoeste 39 Sudoeste 0 -- -- 65
2021-02-16 11:00:00 9.3 21 Sudoeste 30 Sudoeste 0 -- -- 70
2021-02-16 10:00:00 7.3 19 Sudoeste 30 Sudoeste 0 -- -- 78
2021-02-16 09:00:00 8.1 13 Sudoeste 28 Sudoeste 0 -- -- 72
2021-02-16 08:00:00 9 17 Sudoeste 32 Sudoeste 0 -- -- 69
2021-02-16 07:00:00 9.3 15 Sudoeste 29 Sudoeste 0 -- -- 68
2021-02-16 06:00:00 9.4 12 Sudoeste 28 Oeste 0 -- -- 66
2021-02-16 05:00:00 9.7 11 Sudoeste 22 Sur 0 -- -- 66
2021-02-16 04:00:00 10 12 Sur 22 Sudoeste 0 -- -- 66
2021-02-16 03:00:00 10.6 14 Sur 27 Sur 0 -- -- 63
2021-02-16 02:00:00 10.4 8 Sur 22 Este 0 -- -- 65
2021-02-16 01:00:00 10.4 10 Sur 18 Sudeste 0 -- -- 63
2021-02-16 00:00:00 10.5 9 Sur 17 Sur 0 -- -- 62
2021-02-15 23:00:00 10 4 Nordeste 18 Sur 0 -- -- 63
2021-02-15 22:00:00 10.8 8 Sudeste 18 Sur 0 -- -- 56
2021-02-15 21:00:00 10.9 6 Sudeste 14 Sudeste 0 -- -- 53
2021-02-15 20:00:00 11.6 6 Sur 23 Sudoeste 0 -- -- 51
2021-02-15 19:00:00 12.7 11 Sur 27 Oeste 0 -- -- 49
2021-02-15 18:00:00 14.6 22 Oeste 33 Oeste 0 -- -- 47
2021-02-15 17:00:00 15.8 20 Oeste 32 Oeste 0 -- -- 47
2021-02-15 16:00:00 16 14 Sudoeste 30 Oeste 0 -- -- 50
2021-02-15 15:00:00 15.4 10 Sudoeste 27 Oeste 0 -- -- 52
2021-02-15 14:00:00 15.1 11 Sudoeste 22 Sudoeste 0 -- -- 52
2021-02-15 13:00:00 14 8 Sudoeste 15 Sudoeste 0 -- -- 56
2021-02-15 12:00:00 12.9 6 Sudoeste 12 Sudoeste 0 -- -- 57
2021-02-15 11:00:00 11.8 4 Sudoeste 10 Sur 0 -- -- 59
2021-02-15 10:00:00 7.9 5 Este 13 Sudeste 0 -- -- 70
2021-02-15 09:00:00 7.8 6 Sudeste 13 Sudeste 0 -- -- 68
2021-02-15 08:00:00 7.5 6 Este 15 Este 0 -- -- 70
2021-02-15 07:00:00 8.8 5 Sudeste 14 Sur 0 -- -- 65
2021-02-15 06:00:00 8.5 9 Sudeste 16 Sudeste 0 -- -- 66
2021-02-15 05:00:00 7.7 8 Sudeste 15 Sudeste 0 -- -- 69
2021-02-15 04:00:00 7.7 6 Este 17 Sudeste 0 -- -- 70
2021-02-15 03:00:00 8.7 10 Sudeste 17 Sudeste 0 -- -- 70
2021-02-15 02:00:00 8.4 4 Nordeste 19 Sudeste 0 -- -- 72
2021-02-15 01:00:00 9.2 8 Sudeste 16 Sudeste 0 -- -- 70
2021-02-15 00:00:00 9.1 9 Sudeste 14 Sudeste 0 -- -- 71
2021-02-14 23:00:00 9.6 6 Sudeste 14 Sudeste 0 -- -- 71
2021-02-14 22:00:00 9.7 7 Sudeste 12 Este 0 -- -- 71
2021-02-14 21:00:00 9.5 3 Sudeste 11 Este 0 -- -- 73
2021-02-14 20:00:00 10.9 3 Sudeste 12 Sudeste 0 -- -- 69
2021-02-14 19:00:00 12.4 6 Sur 18 Sudoeste 0 -- -- 62
2021-02-14 18:00:00 14.2 14 Sudoeste 22 Sudoeste 0 -- -- 55
2021-02-14 17:00:00 15.1 15 Sudoeste 21 Sudoeste 0 -- -- 56
2021-02-14 16:00:00 14.4 13 Sudoeste 21 Sudoeste 0 -- -- 55
2021-02-14 15:00:00 14.8 12 Sudoeste 22 Sudoeste 0 -- -- 54
2021-02-14 14:00:00 14.7 12 Sudoeste 22 Sudoeste 0 -- -- 54
2021-02-14 13:00:00 13.9 13 Sudoeste 20 Sudoeste 0 -- -- 56
2021-02-14 12:00:00 13.2 8 Sudoeste 12 Sudoeste 0 -- -- 52
2021-02-14 11:00:00 11.8 3 Sur 11 Sudeste 0 -- -- 56
2021-02-14 10:00:00 7.9 5 Sudeste 13 Este 0 -- -- 64
2021-02-14 09:00:00 6.7 5 Sudeste 13 Sudeste 0 -- -- 69
2021-02-14 08:00:00 6.4 5 Sudeste 15 Sudeste 0 -- -- 69
2021-02-14 07:00:00 6.6 10 Sudeste 14 Sudeste 0 -- -- 70
2021-02-14 06:00:00 7.1 4 Este 13 Sudeste 0 -- -- 67
2021-02-14 05:00:00 6.7 5 Este 17 Nordeste 0 -- -- 72
2021-02-14 04:00:00 6.9 8 Este 13 Este 0 -- -- 73
2021-02-14 03:00:00 7.3 4 Sudeste 13 Este 0 -- -- 70
2021-02-14 02:00:00 6.7 6 Este 10 Sudeste 0 -- -- 75
2021-02-14 01:00:00 7.7 8 Sudeste 13 Este 0 -- -- 72
2021-02-14 00:00:00 8.2 10 Este 20 Nordeste 0 -- -- 72
2021-02-13 23:00:00 9 16 Este 27 Nordeste 0 -- -- 79
2021-02-13 22:00:00 8.7 17 Nordeste 32 Nordeste 0 -- -- 80
2021-02-13 21:00:00 9.9 14 Este 26 Nordeste 0 -- -- 76
2021-02-13 20:00:00 10.8 13 Este 28 Nordeste 0 -- -- 68
2021-02-13 19:00:00 11.7 17 Este 38 Este 0 -- -- 66
2021-02-13 18:00:00 13.6 14 Nordeste 30 Nordeste 0 -- -- 58
2021-02-13 17:00:00 14.2 18 Nordeste 31 Nordeste 0 -- -- 53
2021-02-13 16:00:00 14.3 14 Nordeste 36 Nordeste 0 -- -- 51
2021-02-13 15:00:00 13.9 20 Nordeste 36 Este 0 -- -- 51
2021-02-13 14:00:00 14.1 20 Nordeste 40 Norte 0 -- -- 50
2021-02-13 13:00:00 13.1 5 Sur 19 Este 0 -- -- 47
2021-02-13 08:00:00 5.4 6 Este 16 Este 0 -- -- 54
2021-02-13 07:00:00 5.1 9 Este 13 Este 0 -- -- 62
2021-02-13 06:00:00 4.5 8 Este 14 Este 0 -- -- 60
2021-02-13 05:00:00 4.6 8 Sudeste 14 Sudeste 0 -- -- 57
2021-02-13 04:00:00 6.5 8 Este 29 Nordeste 0 -- -- 48
2021-02-13 03:00:00 7.4 15 Nordeste 39 Nordeste 0 -- -- 56
2021-02-13 02:00:00 7.6 26 Este 42 Este 0 -- -- 65
2021-02-13 01:00:00 7.4 26 Este 44 Este 0 -- -- 70
2021-02-13 00:00:00 6.9 26 Este 40 Este 0 -- -- 74
2021-02-12 23:00:00 7 26 Este 41 Este 0 -- -- 74
2021-02-12 22:00:00 7.2 24 Este 39 Este 0 -- -- 73
2021-02-12 21:00:00 7.2 19 Nordeste 31 Nordeste 0 -- -- 73
2021-02-12 20:00:00 8.1 10 Este 33 Nordeste 0 -- -- 68
2021-02-12 19:00:00 9.2 16 Nordeste 30 Sudeste 0 -- -- 65
2021-02-12 18:00:00 11.7 18 Este 37 Este 0 -- -- 46
2021-02-12 17:00:00 12.6 14 Sudoeste 24 Oeste 0 -- -- 59
2021-02-12 16:00:00 12.4 11 Sudoeste 32 Nordeste 0 -- -- 53
2021-02-12 15:00:00 10.2 7 Este 31 Este 0 -- -- 59
2021-02-12 14:00:00 9.5 10 Nordeste 31 Este 0 -- -- 60
2021-02-12 13:00:00 8.8 9 Sudoeste 48 Norte 0 -- -- 63
2021-02-12 12:00:00 8.3 10 Sudeste 42 Noroeste 0 -- -- 64
2021-02-12 11:00:00 7.9 12 Noroeste 37 Noroeste 0 -- -- 63
2021-02-12 10:00:00 6.6 6 Sudeste 18 Sudeste 0 -- -- 84
2021-02-12 09:00:00 7.1 15 Este 27 Sudeste 0 -- -- 76
2021-02-12 08:00:00 6.3 8 Sudoeste 24 Sur 0.2 -- -- 98
2021-02-12 07:00:00 6.8 11 Sur 31 Sur 1.2 -- -- 100
2021-02-12 06:00:00 7.3 11 Sur 24 Sudoeste 0.4 -- -- 100
2021-02-12 05:00:00 8.1 16 Sudoeste 39 Sudoeste 1.2 -- -- 100
2021-02-12 04:00:00 8.7 21 Sudoeste 36 Sudoeste 2.8 -- -- 100
2021-02-12 03:00:00 8.7 22 Sudoeste 33 Sudoeste 10.8 -- -- 100
2021-02-12 02:00:00 8.7 21 Sudoeste 49 Sudoeste 2.2 -- -- 100
2021-02-12 01:00:00 8.9 19 Sudoeste 28 Sudoeste 0 -- -- 100
2021-02-12 00:00:00 8.8 17 Sudoeste 28 Sudoeste 0 -- -- 100
2021-02-11 23:00:00 8.9 14 Sudoeste 23 Sudoeste 0 -- -- 100
2021-02-11 22:00:00 8.9 17 Sudoeste 24 Sudoeste 0 -- -- 100
2021-02-11 21:00:00 9 13 Sudoeste 29 Sudoeste 0.2 -- -- 100
2021-02-11 20:00:00 9.4 20 Sudoeste 28 Sudoeste 0.4 -- -- 100
2021-02-11 19:00:00 9.3 12 Sudoeste 21 Sudoeste 0 -- -- 100
2021-02-11 18:00:00 9.5 17 Sudoeste 39 Sudoeste 0 -- -- 100
2021-02-11 17:00:00 9.6 23 Sudoeste 32 Sudoeste 0.6 -- -- 100
2021-02-11 16:00:00 9.5 19 Sudoeste 27 Sudoeste 0.4 -- -- 100
2021-02-11 15:00:00 9.2 17 Sudoeste 27 Sudoeste 1.2 -- -- 100
2021-02-11 14:00:00 9.1 17 Sudoeste 30 Sudoeste 1.4 -- -- 100
2021-02-11 13:00:00 8.8 22 Sudoeste 31 Sudoeste 0.6 -- -- 100
2021-02-11 12:00:00 8.9 17 Sudoeste 27 Sudoeste 0.4 -- -- 100
2021-02-11 11:00:00 9 15 Sudoeste 24 Sudoeste 0.6 -- -- 100
2021-02-11 10:00:00 8.7 8 Sudoeste 14 Sudoeste 1 -- -- 100
2021-02-11 09:00:00 8.6 7 Sudoeste 12 Sur 0.8 -- -- 99
2021-02-11 08:00:00 8.8 8 Sudoeste 13 Sudoeste 0 -- -- 99
2021-02-11 07:00:00 8.6 5 Sur 12 Sudoeste 0.2 -- -- 99
2021-02-11 06:00:00 8.5 7 Sudoeste 13 Sudoeste 0 -- -- 99
2021-02-11 05:00:00 8.2 6 Sudoeste 13 Sur 0.4 -- -- 98
2021-02-11 04:00:00 7.5 5 Sur 14 Sur 0 -- -- 97
2021-02-11 03:00:00 6.8 4 Este 8 Este 0 -- -- 96
2021-02-11 02:00:00 6.8 2 Este 9 Sudoeste 0 -- -- 95
2021-02-11 01:00:00 7.1 6 Sudoeste 9 Oeste 0 -- -- 91
2021-02-11 00:00:00 7 0 Calma 6 Este 0 -- -- 91
2021-02-10 23:00:00 7 0 Calma 7 Sudoeste 0 -- -- 90
2021-02-10 22:00:00 6.9 0 Calma 5 Sudeste 0 -- -- 89
2021-02-10 21:00:00 6.9 4 Sudeste 9 Sudeste 0 -- -- 88
2021-02-10 20:00:00 7.3 0 Calma 9 Sur 0 -- -- 86
2021-02-10 19:00:00 8 5 Sur 13 Oeste 0 -- -- 81
2021-02-10 18:00:00 8.8 12 Oeste 34 Oeste 0 -- -- 76
2021-02-10 17:00:00 11.5 15 Sudoeste 22 Sudoeste 0 -- -- 59
2021-02-10 16:00:00 11.6 6 Sudoeste 27 Sudoeste 0 -- -- 50
2021-02-10 15:00:00 11 14 Oeste 33 Sudoeste 0 -- -- 57
2021-02-10 14:00:00 11.2 8 Sudoeste 15 Sudoeste 0 -- -- 48
2021-02-10 13:00:00 9.8 5 Sudoeste 17 Sudoeste 0 -- -- 54
2021-02-10 12:00:00 8.5 8 Sudoeste 12 Sudoeste 0 -- -- 66
2021-02-10 11:00:00 7.2 4 Oeste 16 Sudoeste 0 -- -- 72
2021-02-10 10:00:00 6.2 14 Sudeste 51 Norte 0 -- -- 64
2021-02-10 09:00:00 7.1 25 Oeste 64 Oeste 0 -- -- 53
2021-02-10 08:00:00 4.5 14 Sudoeste 32 Oeste 0.2 -- -- 95
2021-02-10 07:00:00 5.2 10 Sudoeste 34 Sudoeste 0.2 -- -- 88
2021-02-10 06:00:00 5.2 22 Sudoeste 50 Sudoeste 1.4 -- -- 96
2021-02-10 05:00:00 5.1 17 Sudoeste 72 Sudoeste 0.6 -- -- 96
2021-02-10 04:00:00 5.3 32 Sudoeste 56 Sudoeste 2.8 -- -- 99
2021-02-10 03:00:00 5 32 Sudoeste 58 Sudoeste 1.6 -- -- 99
2021-02-10 02:00:00 4.9 45 Sudoeste 66 Sudoeste 3 -- -- 99
2021-02-10 01:00:00 4.8 31 Sudoeste 57 Sudoeste 2 -- -- 99
2021-02-10 00:00:00 4.9 34 Sudoeste 54 Sudoeste 1.6 -- -- 98
2021-02-09 23:00:00 5.1 33 Sudoeste 51 Sudoeste 0.8 -- -- 96
2021-02-09 22:00:00 5.2 28 Sudoeste 46 Sudoeste 0.2 -- -- 93
2021-02-09 21:00:00 5.4 24 Sudoeste 39 Sudoeste 0 -- -- 92
2021-02-09 20:00:00 5.6 25 Sudoeste 46 Sudoeste 1.4 -- -- 97
2021-02-09 19:00:00 6.3 30 Sudoeste 55 Sudoeste 0 -- -- 92
2021-02-09 18:00:00 5.9 31 Sudoeste 55 Sudoeste 0 -- -- 94
2021-02-09 17:00:00 5.7 25 Sudoeste 42 Sudoeste 0.2 -- -- 96
2021-02-09 16:00:00 5.6 28 Sudoeste 42 Sudoeste 0 -- -- 97
2021-02-09 15:00:00 5.2 14 Oeste 27 Sudoeste 1.2 -- -- 100
2021-02-09 14:00:00 4.5 16 Sur 51 Sudoeste 3.8 -- -- 100
2021-02-09 13:00:00 6.5 37 Sudoeste 53 Sudoeste 9.4 -- -- 100
2021-02-09 12:00:00 5.8 30 Sudoeste 50 Sudoeste 5.4 -- -- 100
2021-02-09 11:00:00 5.6 30 Sudoeste 60 Sudoeste 4.4 -- -- 100
2021-02-09 10:00:00 5.3 30 Sudoeste 55 Sudoeste 3.4 -- -- 100
2021-02-09 09:00:00 5.6 27 Sudoeste 39 Sudoeste 5 -- -- 100
2021-02-09 08:00:00 5.4 27 Sudoeste 42 Sudoeste 3 -- -- 100
2021-02-09 07:00:00 5.2 23 Sudoeste 42 Sudoeste 4 -- -- 100
2021-02-09 06:00:00 4.9 25 Sudoeste 41 Sudoeste 2 -- -- 100
2021-02-09 05:00:00 4.7 26 Sudoeste 37 Sudoeste 2 -- -- 100
2021-02-09 04:00:00 4.5 26 Sudoeste 42 Sudoeste 1.2 -- -- 100
2021-02-09 03:00:00 4 24 Sudoeste 32 Sudoeste 1.2 -- -- 99
2021-02-09 02:00:00 3.9 22 Sudoeste 32 Sudoeste 0.4 -- -- 99
2021-02-09 01:00:00 3.6 18 Sudoeste 28 Oeste 0 -- -- 97
2021-02-09 00:00:00 3.8 19 Sudoeste 32 Sudoeste 0 -- -- 93
2021-02-08 23:00:00 4 19 Sudoeste 33 Sudoeste 0 -- -- 93
2021-02-08 22:00:00 4.5 13 Sudoeste 24 Sudoeste 0 -- -- 92
2021-02-08 21:00:00 4.9 10 Sudoeste 31 Sudoeste 0 -- -- 91
2021-02-08 20:00:00 5.3 15 Sudoeste 53 Sudoeste 0.2 -- -- 90
2021-02-08 19:00:00 5 12 Sudoeste 30 Sudoeste 0.2 -- -- 96
2021-02-08 18:00:00 5.3 17 Sudoeste 33 Sudoeste 0.8 -- -- 96
2021-02-08 17:00:00 5.7 18 Sudoeste 39 Sudoeste 0.4 -- -- 91
2021-02-08 16:00:00 6.7 20 Sudoeste 44 Sudoeste 0 -- -- 80
2021-02-08 15:00:00 6.4 19 Sudoeste 40 Sudoeste 0 -- -- 82
2021-02-08 14:00:00 5.2 12 Sudoeste 35 Sudoeste 0.6 -- -- 93
2021-02-08 13:00:00 5.1 21 Sudoeste 34 Sudoeste 0 -- -- 86
2021-02-08 12:00:00 4.2 14 Sudoeste 31 Sudoeste 0 -- -- 95
2021-02-08 11:00:00 3.9 21 Sudoeste 36 Sudoeste 0.4 -- -- 98
2021-02-08 10:00:00 3.8 18 Sudoeste 28 Oeste 2.4 -- -- 99
2021-02-08 09:00:00 3.8 16 Sudoeste 27 Oeste 1 -- -- 98
2021-02-08 08:00:00 4.3 12 Sudoeste 19 Sudoeste 0.2 -- -- 97
2021-02-08 07:00:00 4.5 8 Sur 26 Sudoeste 0.4 -- -- 98
2021-02-08 06:00:00 4.5 14 Sudoeste 31 Sur 1 -- -- 99
2021-02-08 05:00:00 5.1 15 Oeste 30 Sudoeste 1.6 -- -- 100
2021-02-08 04:00:00 4.8 10 Sudoeste 17 Sudoeste 6.6 -- -- 100
2021-02-08 03:00:00 4.3 12 Sudoeste 18 Sudoeste 6 -- -- 100
2021-02-08 02:00:00 4.1 10 Sudoeste 18 Sudoeste 4.8 -- -- 100
2021-02-08 01:00:00 3.8 10 Sudoeste 26 Sudoeste 5 -- -- 99
2021-02-08 00:00:00 3.4 16 Sudoeste 22 Sudoeste 2.6 -- -- 99
2021-02-07 23:00:00 3.1 16 Sudoeste 21 Sudoeste 1.4 -- -- 99
2021-02-07 22:00:00 2.9 12 Sudoeste 17 Sudoeste 0.6 -- -- 99
2021-02-07 21:00:00 2.7 6 Sudoeste 10 Sudoeste 0.4 -- -- 99
2021-02-07 20:00:00 2.4 6 Sudoeste 22 Sudoeste 0.2 -- -- 98
2021-02-07 19:00:00 2.7 15 Sudoeste 22 Sudoeste 0.6 -- -- 97
2021-02-07 18:00:00 3.5 15 Oeste 28 Sudoeste 0.8 -- -- 97
2021-02-07 17:00:00 4.5 14 Sudoeste 21 Sudoeste 0.2 -- -- 91
2021-02-07 16:00:00 6.2 17 Sudoeste 27 Oeste 0 -- -- 69
2021-02-07 15:00:00 7.4 15 Oeste 29 Sudoeste 0 -- -- 67
2021-02-07 14:00:00 9 13 Sudoeste 20 Sudoeste 0 -- -- 56
2021-02-07 13:00:00 8 6 Sur 19 Sudoeste 0 -- -- 64
2021-02-07 12:00:00 7.4 5 Norte 27 Este 0 -- -- 63
2021-02-07 11:00:00 5.7 17 Este 28 Este 0 -- -- 69
2021-02-07 10:00:00 3.4 17 Este 30 Este 0 -- -- 80
2021-02-07 09:00:00 2.7 18 Nordeste 29 Nordeste 0 -- -- 83
2021-02-07 08:00:00 3.2 19 Este 30 Este 0 -- -- 80
2021-02-07 07:00:00 3.4 17 Este 30 Nordeste 0 -- -- 78
2021-02-07 06:00:00 3 15 Nordeste 33 Nordeste 0 -- -- 86
2021-02-07 05:00:00 3.3 19 Este 32 Nordeste 0 -- -- 84
2021-02-07 04:00:00 3.1 15 Nordeste 33 Este 0 -- -- 86
2021-02-07 03:00:00 3.5 16 Nordeste 36 Este 0 -- -- 86
2021-02-07 02:00:00 4.1 23 Este 35 Este 0 -- -- 85
2021-02-07 01:00:00 4.4 19 Este 33 Este 0 -- -- 85
2021-02-07 00:00:00 4.6 17 Este 33 Este 0 -- -- 85
2021-02-06 23:00:00 4.7 19 Este 33 Este 0 -- -- 86
2021-02-06 22:00:00 5.1 20 Este 33 Nordeste 0 -- -- 88
2021-02-06 21:00:00 5.5 17 Nordeste 33 Nordeste 0 -- -- 91
2021-02-06 20:00:00 5.7 17 Este 34 Este 0.4 -- -- 91
2021-02-06 19:00:00 5.8 13 Este 23 Este 2 -- -- 91
2021-02-06 18:00:00 6.3 4 Nordeste 19 Este 2.4 -- -- 89
2021-02-06 17:00:00 7.2 2 Nordeste 5 Oeste 1.2 -- -- 91
2021-02-06 16:00:00 7.4 0 Calma 9 Sudoeste 1 -- -- 94
2021-02-06 15:00:00 7.3 9 Sudoeste 13 Oeste 0 -- -- 95
2021-02-06 14:00:00 7.5 10 Sudoeste 13 Sudoeste 0.2 -- -- 95
2021-02-06 13:00:00 6.8 3 Oeste 13 Sudoeste 0 -- -- 96
2021-02-06 12:00:00 7 9 Oeste 14 Sudoeste 0 -- -- 94
2021-02-06 11:00:00 6.6 6 Este 11 Nordeste 0 -- -- 99
2021-02-06 10:00:00 5.5 0 Calma 4 Noroeste 0.2 -- -- 99
2021-02-06 09:00:00 5.3 0 Calma 11 Sudoeste 0.4 -- -- 99
2021-02-06 08:00:00 5.4 8 Sudoeste 12 Sudoeste 0.4 -- -- 99
2021-02-06 07:00:00 5.5 6 Sudoeste 12 Sudoeste 0.4 -- -- 98
2021-02-06 06:00:00 5.4 5 Sur 12 Sur 0.4 -- -- 98
2021-02-06 05:00:00 5.5 4 Sur 9 Sur 0.4 -- -- 98
2021-02-06 04:00:00 5.1 3 Sur 9 Sur 0.4 -- -- 97
2021-02-06 03:00:00 5.1 2 Sudeste 5 Norte 1 -- -- 96
2021-02-06 02:00:00 5.3 4 Nordeste 10 Este 2 -- -- 94
2021-02-06 01:00:00 5.7 3 Sudeste 12 Sudoeste 2.6 -- -- 96
2021-02-06 00:00:00 6.2 0 Calma 13 Sur 1 -- -- 94
2021-02-05 23:00:00 6.3 5 Sudoeste 17 Sur 1.4 -- -- 93
2021-02-05 22:00:00 6.4 6 Sur 21 Oeste 1.6 -- -- 93
2021-02-05 21:00:00 6.7 8 Sudoeste 24 Oeste 3 -- -- 98
2021-02-05 20:00:00 7.2 3 Norte 32 Nordeste 0.4 -- -- 95
2021-02-05 19:00:00 6.8 2 Norte 8 Sudoeste 0 -- -- 98
2021-02-05 18:00:00 6.9 6 Sudoeste 12 Sudoeste 0 -- -- 98
2021-02-05 17:00:00 7 3 Este 12 Sudoeste 0.2 -- -- 97
2021-02-05 16:00:00 7.2 9 Sudoeste 30 Sudoeste 0.2 -- -- 96
2021-02-05 15:00:00 8.8 2 Sudoeste 6 Oeste 0 -- -- 82
2021-02-05 14:00:00 8.9 2 Oeste 16 Sudoeste 0 -- -- 83
2021-02-05 13:00:00 9.4 7 Norte 22 Nordeste 0 -- -- 82
2021-02-05 12:00:00 8.4 16 Nordeste 26 Nordeste -- -- -- 84
2021-02-05 11:00:00 9.1 15 Nordeste 21 Nordeste -- -- -- 78
2021-02-05 10:00:00 7.2 8 Nordeste 13 Nordeste -- -- -- 90
2021-02-05 09:00:00 7.1 5 Sudoeste 18 Sudoeste -- -- -- 97
2021-02-05 08:00:00 7.5 4 Sudoeste 11 Sudeste -- -- -- 93
2021-02-05 07:00:00 8 10 Sudeste 16 Sudeste -- -- -- 90
2021-02-05 06:00:00 8.6 13 Sudoeste 42 Sudoeste -- -- -- 85
2021-02-05 05:00:00 8.5 12 Sudoeste 42 Oeste -- -- -- 89
2021-02-05 04:00:00 9.4 17 Oeste 56 Oeste -- -- -- 81
2021-02-05 03:00:00 7.6 10 Nordeste 18 Norte -- -- -- 94
2021-02-05 02:00:00 7.6 5 Este 18 Sudeste -- -- -- 93
2021-02-05 01:00:00 7.4 5 Sudeste 19 Sudoeste -- -- -- 95
2021-02-05 00:00:00 7.1 2 Oeste 14 Norte -- -- -- 94
2021-02-04 23:00:00 6.7 5 Este 14 Nordeste -- -- -- 97
2021-02-04 22:00:00 6 5 Este 9 Sudoeste -- -- -- 96
2021-02-04 21:00:00 6.3 7 Sur 46 Nordeste -- -- -- 90
2021-02-04 20:00:00 5.2 29 Este 42 Nordeste -- -- -- 86
2021-02-04 19:00:00 4.8 23 Nordeste 32 Nordeste -- -- -- 90
2021-02-04 18:00:00 4.8 21 Nordeste 35 Nordeste 0 -- -- 91
2021-02-04 17:00:00 5.1 24 Este 37 Nordeste 0 -- -- 91
2021-02-04 16:00:00 5.4 20 Nordeste 31 Nordeste 0 -- -- 91
2021-02-04 15:00:00 6.8 14 Nordeste 24 Nordeste 0 -- -- 90
2021-02-04 14:00:00 6.3 14 Sudoeste 31 Nordeste 0 -- -- 96
2021-02-04 13:00:00 6.4 6 Nordeste 12 Nordeste 0 -- -- 99
2021-02-04 12:00:00 6.2 0 Calma 14 Sudoeste 0 -- -- 99
2021-02-04 11:00:00 6.1 5 Sudoeste 10 Sudoeste 0 -- -- 98
2021-02-04 10:00:00 6.4 2 Noroeste 6 Sudeste 0 -- -- 97
2021-02-04 09:00:00 6 4 Nordeste 8 Nordeste 0 -- -- 99
2021-02-04 08:00:00 5.9 4 Este 6 Nordeste 0 -- -- 100
2021-02-04 07:00:00 5.8 3 Sudeste 7 Sudeste 0 -- -- 100
2021-02-04 06:00:00 5.8 3 Nordeste 9 Sudeste 0.2 -- -- 100
2021-02-04 05:00:00 5.8 0 Calma 6 Norte 0 -- -- 100
2021-02-04 04:00:00 5.8 0 Calma 9 Sur 0.2 -- -- 100
2021-02-04 03:00:00 5.8 5 Sudoeste 13 Sur 0.6 -- -- 100
2021-02-04 02:00:00 5.7 7 Sudoeste 13 Sur 0 -- -- 100
2021-02-04 01:00:00 6.5 10 Sudoeste 17 Sudoeste 0.4 -- -- 100
2021-02-04 00:00:00 6.5 9 Sudoeste 14 Sur 0.6 -- -- 100